sensor_id;sensor_type;location;lat;lon;timestamp;pressure;altitude;pressure_sealevel;temperature;humidity
10470;BME280;5282;47.052;15.458;2023-03-12T00:01:18;97023.09;;;3.37;47.81
10470;BME280;5282;47.052;15.458;2023-03-12T00:03:45;97032.38;;;3.12;48.69
10470;BME280;5282;47.052;15.458;2023-03-12T00:06:13;97034.09;;;3.22;49.31
10470;BME280;5282;47.052;15.458;2023-03-12T00:08:42;97040.13;;;3.24;49.84
10470;BME280;5282;47.052;15.458;2023-03-12T00:11:11;97040.09;;;3.46;49.09
10470;BME280;5282;47.052;15.458;2023-03-12T00:13:39;97044.78;;;3.32;49.56
10470;BME280;5282;47.052;15.458;2023-03-12T00:16:09;97040.44;;;3.31;49.53
10470;BME280;5282;47.052;15.458;2023-03-12T00:18:37;97046.03;;;3.28;50.69
10470;BME280;5282;47.052;15.458;2023-03-12T00:21:04;97061.22;;;3.37;50.07
10470;BME280;5282;47.052;15.458;2023-03-12T00:23:32;97056.31;;;3.43;50.39
10470;BME280;5282;47.052;15.458;2023-03-12T00:26:00;97054.50;;;3.43;50.03
10470;BME280;5282;47.052;15.458;2023-03-12T00:28:28;97053.13;;;3.49;49.30
10470;BME280;5282;47.052;15.458;2023-03-12T00:30:56;97061.38;;;3.46;48.75
10470;BME280;5282;47.052;15.458;2023-03-12T00:33:25;97065.81;;;3.35;49.73
10470;BME280;5282;47.052;15.458;2023-03-12T00:35:52;97062.69;;;2.99;51.33
10470;BME280;5282;47.052;15.458;2023-03-12T00:38:20;97071.09;;;3.26;51.28
10470;BME280;5282;47.052;15.458;2023-03-12T00:40:47;97076.00;;;3.30;51.94
10470;BME280;5282;47.052;15.458;2023-03-12T00:43:14;97080.13;;;3.13;52.09
10470;BME280;5282;47.052;15.458;2023-03-12T00:45:41;97085.03;;;2.87;52.27
10470;BME280;5282;47.052;15.458;2023-03-12T00:48:09;97081.50;;;3.07;52.89
10470;BME280;5282;47.052;15.458;2023-03-12T00:50:37;97083.38;;;3.17;51.72
10470;BME280;5282;47.052;15.458;2023-03-12T00:53:04;97088.53;;;2.66;53.17
10470;BME280;5282;47.052;15.458;2023-03-12T00:55:32;97094.28;;;2.71;54.89
10470;BME280;5282;47.052;15.458;2023-03-12T00:57:59;97092.94;;;2.77;54.89
10470;BME280;5282;47.052;15.458;2023-03-12T01:00:26;97090.09;;;2.90;54.13
10470;BME280;5282;47.052;15.458;2023-03-12T01:02:53;97104.16;;;2.81;53.67
10470;BME280;5282;47.052;15.458;2023-03-12T01:05:21;97098.47;;;2.85;53.79
10470;BME280;5282;47.052;15.458;2023-03-12T01:07:49;97103.03;;;2.62;55.58
10470;BME280;5282;47.052;15.458;2023-03-12T01:10:18;97099.03;;;2.46;55.44
10470;BME280;5282;47.052;15.458;2023-03-12T01:12:46;97099.66;;;2.60;56.56
10470;BME280;5282;47.052;15.458;2023-03-12T01:15:15;97100.13;;;2.65;56.69
10470;BME280;5282;47.052;15.458;2023-03-12T01:17:42;97102.66;;;2.67;56.96
10470;BME280;5282;47.052;15.458;2023-03-12T01:20:10;97106.28;;;2.66;57.58
10470;BME280;5282;47.052;15.458;2023-03-12T01:22:37;97109.94;;;2.65;56.70
10470;BME280;5282;47.052;15.458;2023-03-12T01:25:06;97109.06;;;2.64;56.19
10470;BME280;5282;47.052;15.458;2023-03-12T01:27:36;97109.72;;;2.56;57.29
10470;BME280;5282;47.052;15.458;2023-03-12T01:30:04;97111.66;;;2.54;57.67
10470;BME280;5282;47.052;15.458;2023-03-12T01:32:31;97108.59;;;2.59;57.62
10470;BME280;5282;47.052;15.458;2023-03-12T01:34:58;97105.13;;;2.58;58.75
10470;BME280;5282;47.052;15.458;2023-03-12T01:37:26;97103.22;;;2.49;59.16
10470;BME280;5282;47.052;15.458;2023-03-12T01:39:53;97101.41;;;2.50;57.31
10470;BME280;5282;47.052;15.458;2023-03-12T01:42:22;97108.25;;;2.31;58.41
10470;BME280;5282;47.052;15.458;2023-03-12T01:44:55;97112.38;;;2.24;60.47
10470;BME280;5282;47.052;15.458;2023-03-12T01:47:23;97102.44;;;2.26;61.83
10470;BME280;5282;47.052;15.458;2023-03-12T01:49:52;97106.41;;;2.31;59.68
10470;BME280;5282;47.052;15.458;2023-03-12T01:52:22;97111.88;;;2.30;59.45
10470;BME280;5282;47.052;15.458;2023-03-12T01:54:54;97112.50;;;2.22;60.89
10470;BME280;5282;47.052;15.458;2023-03-12T01:57:27;97116.88;;;2.12;60.67
10470;BME280;5282;47.052;15.458;2023-03-12T01:59:59;97112.91;;;2.06;62.50
10470;BME280;5282;47.052;15.458;2023-03-12T02:02:29;97117.50;;;1.93;66.67
10470;BME280;5282;47.052;15.458;2023-03-12T02:05:05;97122.00;;;1.92;66.66
10470;BME280;5282;47.052;15.458;2023-03-12T02:07:37;97118.63;;;1.90;66.33
10470;BME280;5282;47.052;15.458;2023-03-12T02:10:07;97127.66;;;1.99;65.92
10470;BME280;5282;47.052;15.458;2023-03-12T02:12:38;97122.13;;;1.79;69.39
10470;BME280;5282;47.052;15.458;2023-03-12T02:15:06;97123.34;;;1.64;76.14
10470;BME280;5282;47.052;15.458;2023-03-12T02:17:35;97126.47;;;1.35;82.23
10470;BME280;5282;47.052;15.458;2023-03-12T02:20:08;97132.03;;;1.20;85.85
10470;BME280;5282;47.052;15.458;2023-03-12T02:22:38;97129.38;;;1.09;87.14
10470;BME280;5282;47.052;15.458;2023-03-12T02:25:20;97132.63;;;1.13;86.71
10470;BME280;5282;47.052;15.458;2023-03-12T02:27:52;97138.03;;;1.11;88.60
10470;BME280;5282;47.052;15.458;2023-03-12T02:30:20;97135.88;;;1.16;83.26
10470;BME280;5282;47.052;15.458;2023-03-12T02:32:49;97143.91;;;0.92;87.63
10470;BME280;5282;47.052;15.458;2023-03-12T02:35:20;97150.19;;;0.67;88.66
10470;BME280;5282;47.052;15.458;2023-03-12T02:37:47;97154.50;;;0.56;90.82
10470;BME280;5282;47.052;15.458;2023-03-12T02:40:21;97153.53;;;0.57;91.74
10470;BME280;5282;47.052;15.458;2023-03-12T02:42:51;97145.25;;;0.98;87.11
10470;BME280;5282;47.052;15.458;2023-03-12T02:45:18;97152.41;;;0.73;87.83
10470;BME280;5282;47.052;15.458;2023-03-12T02:47:46;97148.81;;;0.74;90.07
10470;BME280;5282;47.052;15.458;2023-03-12T02:50:13;97150.72;;;0.72;90.78
10470;BME280;5282;47.052;15.458;2023-03-12T02:52:40;97161.34;;;0.83;91.50
10470;BME280;5282;47.052;15.458;2023-03-12T02:55:08;97154.16;;;0.61;92.29
10470;BME280;5282;47.052;15.458;2023-03-12T02:57:36;97162.00;;;0.63;94.87
10470;BME280;5282;47.052;15.458;2023-03-12T03:00:04;97164.22;;;0.44;94.95
10470;BME280;5282;47.052;15.458;2023-03-12T03:02:32;97165.31;;;0.53;94.48
10470;BME280;5282;47.052;15.458;2023-03-12T03:05:00;97159.97;;;0.42;96.35
10470;BME280;5282;47.052;15.458;2023-03-12T03:07:27;97167.25;;;0.27;97.69
10470;BME280;5282;47.052;15.458;2023-03-12T03:09:54;97166.09;;;0.18;100.00
10470;BME280;5282;47.052;15.458;2023-03-12T03:12:23;97164.72;;;0.25;97.86
10470;BME280;5282;47.052;15.458;2023-03-12T03:14:52;97172.13;;;0.20;100.00
10470;BME280;5282;47.052;15.458;2023-03-12T03:17:19;97170.44;;;0.19;97.90
10470;BME280;5282;47.052;15.458;2023-03-12T03:19:48;97183.41;;;0.11;100.00
10470;BME280;5282;47.052;15.458;2023-03-12T03:22:14;97191.56;;;0.08;100.00
10470;BME280;5282;47.052;15.458;2023-03-12T03:24:42;97188.19;;;0.06;100.00
10470;BME280;5282;47.052;15.458;2023-03-12T03:27:09;97185.94;;;0.12;100.00
10470;BME280;5282;47.052;15.458;2023-03-12T03:29:36;97189.72;;;0.21;100.00
10470;BME280;5282;47.052;15.458;2023-03-12T03:32:06;97188.88;;;0.21;99.49
10470;BME280;5282;47.052;15.458;2023-03-12T03:34:32;97189.63;;;0.23;98.50
10470;BME280;5282;47.052;15.458;2023-03-12T03:36:59;97197.94;;;0.05;98.65
10470;BME280;5282;47.052;15.458;2023-03-12T03:39:27;97191.97;;;0.14;99.57
10470;BME280;5282;47.052;15.458;2023-03-12T03:41:54;97202.53;;;0.27;99.51
10470;BME280;5282;47.052;15.458;2023-03-12T03:44:23;97205.66;;;0.08;100.00
10470;BME280;5282;47.052;15.458;2023-03-12T03:46:50;97208.56;;;-0.08;100.00
10470;BME280;5282;47.052;15.458;2023-03-12T03:49:19;97215.09;;;-0.01;100.00
10470;BME280;5282;47.052;15.458;2023-03-12T03:51:46;97211.91;;;-0.06;100.00
10470;BME280;5282;47.052;15.458;2023-03-12T03:54:13;97217.81;;;0.11;100.00
10470;BME280;5282;47.052;15.458;2023-03-12T03:56:40;97217.75;;;0.37;100.00
10470;BME280;5282;47.052;15.458;2023-03-12T03:59:07;97217.28;;;0.43;100.00
10470;BME280;5282;47.052;15.458;2023-03-12T04:01:34;97220.63;;;0.34;100.00
10470;BME280;5282;47.052;15.458;2023-03-12T04:04:01;97222.09;;;0.38;100.00
10470;BME280;5282;47.052;15.458;2023-03-12T04:06:30;97231.41;;;0.06;100.00
10470;BME280;5282;47.052;15.458;2023-03-12T04:08:58;97235.84;;;-0.07;100.00
10470;BME280;5282;47.052;15.458;2023-03-12T04:11:25;97234.69;;;-0.03;100.00
10470;BME280;5282;47.052;15.458;2023-03-12T04:13:52;97239.03;;;-0.02;100.00
10470;BME280;5282;47.052;15.458;2023-03-12T04:16:19;97244.66;;;0.30;100.00
10470;BME280;5282;47.052;15.458;2023-03-12T04:18:46;97251.91;;;0.15;100.00
10470;BME280;5282;47.052;15.458;2023-03-12T04:21:13;97250.13;;;0.16;100.00
10470;BME280;5282;47.052;15.458;2023-03-12T04:23:42;97253.41;;;0.20;100.00
10470;BME280;5282;47.052;15.458;2023-03-12T04:26:09;97249.56;;;0.24;100.00
10470;BME280;5282;47.052;15.458;2023-03-12T04:28:36;97251.56;;;0.20;100.00
10470;BME280;5282;47.052;15.458;2023-03-12T04:31:05;97250.63;;;0.21;100.00
10470;BME280;5282;47.052;15.458;2023-03-12T04:33:34;97245.16;;;-0.02;100.00
10470;BME280;5282;47.052;15.458;2023-03-12T04:36:02;97258.31;;;-0.13;100.00
10470;BME280;5282;47.052;15.458;2023-03-12T04:38:30;97253.22;;;-0.16;100.00
10470;BME280;5282;47.052;15.458;2023-03-12T04:40:59;97255.88;;;-0.29;100.00
10470;BME280;5282;47.052;15.458;2023-03-12T04:43:27;97256.53;;;-0.38;100.00
10470;BME280;5282;47.052;15.458;2023-03-12T04:45:54;97261.16;;;-0.55;100.00
10470;BME280;5282;47.052;15.458;2023-03-12T04:48:21;97267.53;;;-0.57;100.00
10470;BME280;5282;47.052;15.458;2023-03-12T04:50:49;97272.50;;;-0.66;100.00
10470;BME280;5282;47.052;15.458;2023-03-12T04:53:16;97273.44;;;-0.67;100.00
10470;BME280;5282;47.052;15.458;2023-03-12T04:55:43;97275.88;;;-0.38;100.00
10470;BME280;5282;47.052;15.458;2023-03-12T04:58:11;97274.69;;;0.05;100.00
10470;BME280;5282;47.052;15.458;2023-03-12T05:00:39;97286.16;;;-0.59;100.00
10470;BME280;5282;47.052;15.458;2023-03-12T05:03:06;97288.81;;;-0.46;100.00
10470;BME280;5282;47.052;15.458;2023-03-12T05:05:33;97289.31;;;-0.15;100.00
10470;BME280;5282;47.052;15.458;2023-03-12T05:08:01;97288.91;;;-0.09;100.00
10470;BME280;5282;47.052;15.458;2023-03-12T05:10:28;97292.31;;;-0.33;100.00
10470;BME280;5282;47.052;15.458;2023-03-12T05:12:55;97294.09;;;-0.46;100.00
10470;BME280;5282;47.052;15.458;2023-03-12T05:15:23;97300.31;;;-0.34;100.00
10470;BME280;5282;47.052;15.458;2023-03-12T05:17:50;97304.16;;;-0.25;100.00
10470;BME280;5282;47.052;15.458;2023-03-12T05:20:18;97307.84;;;-0.15;100.00
10470;BME280;5282;47.052;15.458;2023-03-12T05:22:45;97311.84;;;-0.61;100.00
10470;BME280;5282;47.052;15.458;2023-03-12T05:25:12;97308.00;;;-0.70;100.00
10470;BME280;5282;47.052;15.458;2023-03-12T05:27:39;97313.84;;;-0.65;100.00
10470;BME280;5282;47.052;15.458;2023-03-12T05:30:06;97319.38;;;-0.29;100.00
10470;BME280;5282;47.052;15.458;2023-03-12T05:32:36;97318.84;;;-0.08;100.00
10470;BME280;5282;47.052;15.458;2023-03-12T05:35:03;97323.31;;;-0.09;100.00
10470;BME280;5282;47.052;15.458;2023-03-12T05:37:30;97325.84;;;-0.33;100.00
10470;BME280;5282;47.052;15.458;2023-03-12T05:39:57;97330.91;;;-0.43;100.00
10470;BME280;5282;47.052;15.458;2023-03-12T05:42:25;97333.34;;;-0.40;100.00
10470;BME280;5282;47.052;15.458;2023-03-12T05:44:52;97347.78;;;-0.18;100.00
10470;BME280;5282;47.052;15.458;2023-03-12T05:47:19;97345.53;;;-0.11;100.00
10470;BME280;5282;47.052;15.458;2023-03-12T05:49:47;97351.88;;;-0.27;100.00
10470;BME280;5282;47.052;15.458;2023-03-12T05:52:16;97352.63;;;-0.25;100.00
10470;BME280;5282;47.052;15.458;2023-03-12T05:54:43;97359.50;;;-0.22;100.00
10470;BME280;5282;47.052;15.458;2023-03-12T05:57:10;97362.44;;;-0.40;100.00
10470;BME280;5282;47.052;15.458;2023-03-12T05:59:37;97372.94;;;-0.25;100.00
10470;BME280;5282;47.052;15.458;2023-03-12T06:02:04;97363.22;;;-0.25;100.00
10470;BME280;5282;47.052;15.458;2023-03-12T06:04:31;97371.69;;;-0.20;100.00
10470;BME280;5282;47.052;15.458;2023-03-12T06:06:59;97376.16;;;0.06;100.00
10470;BME280;5282;47.052;15.458;2023-03-12T06:09:26;97382.41;;;0.18;100.00
10470;BME280;5282;47.052;15.458;2023-03-12T06:11:56;97382.38;;;0.30;100.00
10470;BME280;5282;47.052;15.458;2023-03-12T06:14:23;97380.69;;;0.17;100.00
10470;BME280;5282;47.052;15.458;2023-03-12T06:16:50;97388.22;;;0.36;100.00
10470;BME280;5282;47.052;15.458;2023-03-12T06:19:17;97391.72;;;0.23;100.00
10470;BME280;5282;47.052;15.458;2023-03-12T06:21:44;97398.41;;;0.16;100.00
10470;BME280;5282;47.052;15.458;2023-03-12T06:24:12;97399.66;;;0.23;100.00
10470;BME280;5282;47.052;15.458;2023-03-12T06:26:39;97401.69;;;0.45;99.28
10470;BME280;5282;47.052;15.458;2023-03-12T06:29:06;97401.13;;;0.66;96.55
10470;BME280;5282;47.052;15.458;2023-03-12T06:31:34;97403.59;;;0.81;95.06
10470;BME280;5282;47.052;15.458;2023-03-12T06:34:01;97408.69;;;0.84;91.30
10470;BME280;5282;47.052;15.458;2023-03-12T06:36:28;97413.94;;;0.59;95.22
10470;BME280;5282;47.052;15.458;2023-03-12T06:38:56;97418.81;;;0.66;92.91
10470;BME280;5282;47.052;15.458;2023-03-12T06:41:25;97412.41;;;0.81;89.84
10470;BME280;5282;47.052;15.458;2023-03-12T06:43:52;97421.78;;;0.61;94.54
10470;BME280;5282;47.052;15.458;2023-03-12T06:46:19;97419.53;;;0.68;94.26
10470;BME280;5282;47.052;15.458;2023-03-12T06:48:51;97420.72;;;0.64;90.68
10470;BME280;5282;47.052;15.458;2023-03-12T06:51:18;97417.44;;;0.60;89.84
10470;BME280;5282;47.052;15.458;2023-03-12T06:53:46;97423.94;;;0.93;87.04
10470;BME280;5282;47.052;15.458;2023-03-12T06:56:14;97416.06;;;1.04;85.47
10470;BME280;5282;47.052;15.458;2023-03-12T06:58:43;97417.34;;;0.99;88.15
10470;BME280;5282;47.052;15.458;2023-03-12T07:01:10;97419.97;;;1.36;84.11
10470;BME280;5282;47.052;15.458;2023-03-12T07:03:37;97426.09;;;1.49;79.70
10470;BME280;5282;47.052;15.458;2023-03-12T07:06:04;97430.66;;;1.47;79.93
10470;BME280;5282;47.052;15.458;2023-03-12T07:08:38;97432.53;;;1.58;80.00
10470;BME280;5282;47.052;15.458;2023-03-12T07:11:05;97434.16;;;1.72;78.71
10470;BME280;5282;47.052;15.458;2023-03-12T07:13:33;97438.03;;;1.79;76.52
10470;BME280;5282;47.052;15.458;2023-03-12T07:16:02;97444.06;;;1.81;75.92
10470;BME280;5282;47.052;15.458;2023-03-12T07:18:30;97452.22;;;1.67;78.44
10470;BME280;5282;47.052;15.458;2023-03-12T07:20:57;97448.56;;;1.81;75.90
10470;BME280;5282;47.052;15.458;2023-03-12T07:23:24;97455.94;;;1.64;75.79
10470;BME280;5282;47.052;15.458;2023-03-12T07:25:51;97460.91;;;1.69;76.12
10470;BME280;5282;47.052;15.458;2023-03-12T07:28:19;97461.53;;;1.73;77.70
10470;BME280;5282;47.052;15.458;2023-03-12T07:30:46;97460.41;;;1.88;76.10
10470;BME280;5282;47.052;15.458;2023-03-12T07:33:18;97459.69;;;1.97;75.31
10470;BME280;5282;47.052;15.458;2023-03-12T07:35:46;97469.66;;;2.07;75.57
10470;BME280;5282;47.052;15.458;2023-03-12T07:38:13;97475.09;;;2.16;73.58
10470;BME280;5282;47.052;15.458;2023-03-12T07:40:40;97485.38;;;2.21;72.58
10470;BME280;5282;47.052;15.458;2023-03-12T07:43:07;97494.34;;;2.31;71.92
10470;BME280;5282;47.052;15.458;2023-03-12T07:45:36;97494.13;;;1.99;71.78
10470;BME280;5282;47.052;15.458;2023-03-12T07:48:04;97496.13;;;1.84;74.75
10470;BME280;5282;47.052;15.458;2023-03-12T07:50:33;97497.34;;;1.91;78.14
10470;BME280;5282;47.052;15.458;2023-03-12T07:53:00;97496.34;;;2.16;78.54
10470;BME280;5282;47.052;15.458;2023-03-12T07:55:29;97492.19;;;2.37;73.15
10470;BME280;5282;47.052;15.458;2023-03-12T07:57:56;97492.81;;;2.52;70.90
10470;BME280;5282;47.052;15.458;2023-03-12T08:00:24;97489.44;;;2.61;69.21
10470;BME280;5282;47.052;15.458;2023-03-12T08:02:51;97489.41;;;2.50;72.77
10470;BME280;5282;47.052;15.458;2023-03-12T08:05:19;97496.22;;;2.65;69.98
10470;BME280;5282;47.052;15.458;2023-03-12T08:07:50;97496.09;;;2.78;68.23
10470;BME280;5282;47.052;15.458;2023-03-12T08:10:20;97481.63;;;2.93;66.10
10470;BME280;5282;47.052;15.458;2023-03-12T08:12:48;97479.09;;;3.03;65.60
10470;BME280;5282;47.052;15.458;2023-03-12T08:15:15;97482.94;;;2.76;68.17
10470;BME280;5282;47.052;15.458;2023-03-12T08:17:42;97483.66;;;2.67;67.09
10470;BME280;5282;47.052;15.458;2023-03-12T08:20:10;97483.19;;;2.96;67.29
10470;BME280;5282;47.052;15.458;2023-03-12T08:22:39;97482.19;;;3.31;65.03
10470;BME280;5282;47.052;15.458;2023-03-12T08:25:09;97474.44;;;3.39;64.21
10470;BME280;5282;47.052;15.458;2023-03-12T08:27:36;97478.16;;;3.48;64.96
10470;BME280;5282;47.052;15.458;2023-03-12T08:30:03;97475.88;;;3.44;61.48
10470;BME280;5282;47.052;15.458;2023-03-12T08:32:31;97481.63;;;3.72;59.84
10470;BME280;5282;47.052;15.458;2023-03-12T08:34:58;97478.34;;;3.79;60.17
10470;BME280;5282;47.052;15.458;2023-03-12T08:37:25;97476.50;;;3.80;58.59
10470;BME280;5282;47.052;15.458;2023-03-12T08:39:52;97481.00;;;3.79;62.93
10470;BME280;5282;47.052;15.458;2023-03-12T08:42:21;97476.63;;;4.11;59.17
10470;BME280;5282;47.052;15.458;2023-03-12T08:44:50;97470.59;;;4.30;58.24
10470;BME280;5282;47.052;15.458;2023-03-12T08:47:17;97474.25;;;4.29;56.08
10470;BME280;5282;47.052;15.458;2023-03-12T08:49:46;97471.13;;;4.24;55.70
10470;BME280;5282;47.052;15.458;2023-03-12T08:52:13;97467.75;;;4.43;56.22
10470;BME280;5282;47.052;15.458;2023-03-12T08:54:41;97474.50;;;4.26;56.69
10470;BME280;5282;47.052;15.458;2023-03-12T08:57:07;97469.31;;;4.45;56.91
10470;BME280;5282;47.052;15.458;2023-03-12T08:59:36;97467.66;;;4.75;54.18
10470;BME280;5282;47.052;15.458;2023-03-12T09:02:03;97471.16;;;5.07;50.75
10470;BME280;5282;47.052;15.458;2023-03-12T09:04:30;97474.66;;;5.07;51.48
10470;BME280;5282;47.052;15.458;2023-03-12T09:06:59;97477.22;;;5.09;53.62
10470;BME280;5282;47.052;15.458;2023-03-12T09:09:26;97467.94;;;5.13;53.71
10470;BME280;5282;47.052;15.458;2023-03-12T09:11:53;97470.34;;;5.67;49.26
10470;BME280;5282;47.052;15.458;2023-03-12T09:14:20;97465.59;;;5.80;49.29
10470;BME280;5282;47.052;15.458;2023-03-12T09:16:48;97458.66;;;5.58;49.06
10470;BME280;5282;47.052;15.458;2023-03-12T09:19:17;97460.63;;;5.56;49.43
10470;BME280;5282;47.052;15.458;2023-03-12T09:21:45;97458.22;;;5.43;51.08
10470;BME280;5282;47.052;15.458;2023-03-12T09:24:11;97465.72;;;5.98;50.25
10470;BME280;5282;47.052;15.458;2023-03-12T09:26:39;97466.88;;;6.15;48.32
10470;BME280;5282;47.052;15.458;2023-03-12T09:29:06;97459.78;;;6.63;47.20
10470;BME280;5282;47.052;15.458;2023-03-12T09:31:32;97455.97;;;6.66;47.27
10470;BME280;5282;47.052;15.458;2023-03-12T09:34:02;97458.84;;;6.92;46.83
10470;BME280;5282;47.052;15.458;2023-03-12T09:36:29;97452.38;;;6.28;46.61
10470;BME280;5282;47.052;15.458;2023-03-12T09:38:56;97458.22;;;7.08;45.97
10470;BME280;5282;47.052;15.458;2023-03-12T09:41:25;97453.69;;;7.19;44.99
10470;BME280;5282;47.052;15.458;2023-03-12T09:43:55;97450.22;;;7.36;44.09
10470;BME280;5282;47.052;15.458;2023-03-12T09:46:26;97460.38;;;6.47;45.50
10470;BME280;5282;47.052;15.458;2023-03-12T09:48:57;97453.22;;;6.86;45.37
10470;BME280;5282;47.052;15.458;2023-03-12T09:51:33;97447.63;;;7.17;44.14
10470;BME280;5282;47.052;15.458;2023-03-12T09:54:03;97457.53;;;7.06;45.22
10470;BME280;5282;47.052;15.458;2023-03-12T09:56:32;97466.78;;;6.74;45.44
10470;BME280;5282;47.052;15.458;2023-03-12T09:58:59;97464.47;;;6.99;44.39
10470;BME280;5282;47.052;15.458;2023-03-12T10:01:37;97460.03;;;7.18;43.58
10470;BME280;5282;47.052;15.458;2023-03-12T10:04:30;97455.44;;;7.00;44.40
10470;BME280;5282;47.052;15.458;2023-03-12T10:07:06;97458.47;;;7.15;43.75
10470;BME280;5282;47.052;15.458;2023-03-12T10:10:00;97464.91;;;6.37;44.77
10470;BME280;5282;47.052;15.458;2023-03-12T10:12:37;97456.50;;;6.12;45.88
10470;BME280;5282;47.052;15.458;2023-03-12T10:15:16;97452.53;;;6.16;46.77
10470;BME280;5282;47.052;15.458;2023-03-12T10:18:00;97452.00;;;7.18;45.71
10470;BME280;5282;47.052;15.458;2023-03-12T10:20:52;97443.59;;;7.59;44.11
10470;BME280;5282;47.052;15.458;2023-03-12T10:23:33;97442.47;;;7.05;44.64
10470;BME280;5282;47.052;15.458;2023-03-12T10:26:09;97435.50;;;7.86;44.42
10470;BME280;5282;47.052;15.458;2023-03-12T10:28:42;97437.84;;;8.44;43.77
10470;BME280;5282;47.052;15.458;2023-03-12T10:31:14;97434.28;;;8.61;41.27
10470;BME280;5282;47.052;15.458;2023-03-12T10:33:48;97441.81;;;8.40;41.27
10470;BME280;5282;47.052;15.458;2023-03-12T10:36:19;97438.41;;;8.11;42.00
10470;BME280;5282;47.052;15.458;2023-03-12T10:38:50;97435.06;;;8.80;43.49
10470;BME280;5282;47.052;15.458;2023-03-12T10:41:19;97442.75;;;8.30;41.18
10470;BME280;5282;47.052;15.458;2023-03-12T10:43:47;97445.69;;;7.83;40.96
10470;BME280;5282;47.052;15.458;2023-03-12T10:46:38;97440.06;;;8.30;42.11
10470;BME280;5282;47.052;15.458;2023-03-12T10:49:24;97443.94;;;8.72;42.18
10470;BME280;5282;47.052;15.458;2023-03-12T10:51:56;97436.22;;;8.51;41.03
10470;BME280;5282;47.052;15.458;2023-03-12T10:54:29;97429.69;;;8.54;41.07
10470;BME280;5282;47.052;15.458;2023-03-12T10:56:57;97431.38;;;8.81;39.65
10470;BME280;5282;47.052;15.458;2023-03-12T10:59:30;97432.28;;;8.90;41.84
10470;BME280;5282;47.052;15.458;2023-03-12T11:01:57;97428.72;;;9.59;38.86
10470;BME280;5282;47.052;15.458;2023-03-12T11:04:28;97419.50;;;9.94;38.97
10470;BME280;5282;47.052;15.458;2023-03-12T11:07:15;97432.13;;;9.94;38.44
10470;BME280;5282;47.052;15.458;2023-03-12T11:09:45;97427.97;;;8.97;40.34
10470;BME280;5282;47.052;15.458;2023-03-12T11:12:23;97432.22;;;9.67;38.68
10470;BME280;5282;47.052;15.458;2023-03-12T11:14:51;97426.41;;;9.97;38.06
10470;BME280;5282;47.052;15.458;2023-03-12T11:17:22;97425.41;;;10.23;38.28
10470;BME280;5282;47.052;15.458;2023-03-12T11:19:50;97431.31;;;10.18;37.22
10470;BME280;5282;47.052;15.458;2023-03-12T11:22:28;97426.84;;;8.11;39.78
10470;BME280;5282;47.052;15.458;2023-03-12T11:24:58;97427.81;;;7.55;40.83
10470;BME280;5282;47.052;15.458;2023-03-12T11:27:36;97432.56;;;7.80;41.64
10470;BME280;5282;47.052;15.458;2023-03-12T11:30:10;97430.88;;;7.79;41.67
10470;BME280;5282;47.052;15.458;2023-03-12T11:32:41;97429.13;;;7.69;42.97
10470;BME280;5282;47.052;15.458;2023-03-12T11:35:10;97408.81;;;8.66;40.51
10470;BME280;5282;47.052;15.458;2023-03-12T11:37:47;97404.25;;;9.27;39.92
10470;BME280;5282;47.052;15.458;2023-03-12T11:40:29;97392.31;;;9.30;38.22
10470;BME280;5282;47.052;15.458;2023-03-12T11:43:16;97404.13;;;8.94;39.53
10470;BME280;5282;47.052;15.458;2023-03-12T11:46:01;97409.19;;;8.26;39.64
10470;BME280;5282;47.052;15.458;2023-03-12T11:48:40;97390.31;;;8.89;39.55
10470;BME280;5282;47.052;15.458;2023-03-12T11:51:20;97394.41;;;9.52;38.85
10470;BME280;5282;47.052;15.458;2023-03-12T11:54:08;97387.94;;;9.29;39.72
10470;BME280;5282;47.052;15.458;2023-03-12T11:56:40;97382.25;;;9.32;39.51
10470;BME280;5282;47.052;15.458;2023-03-12T11:59:35;97372.81;;;10.45;38.44
10470;BME280;5282;47.052;15.458;2023-03-12T12:02:32;97374.78;;;10.26;36.77
10470;BME280;5282;47.052;15.458;2023-03-12T12:05:19;97365.91;;;10.51;37.46
10470;BME280;5282;47.052;15.458;2023-03-12T12:07:54;97362.09;;;10.85;35.35
10470;BME280;5282;47.052;15.458;2023-03-12T12:10:31;97353.72;;;10.71;36.84
10470;BME280;5282;47.052;15.458;2023-03-12T12:13:08;97348.22;;;10.48;37.70
10470;BME280;5282;47.052;15.458;2023-03-12T12:15:43;97346.91;;;10.44;36.63
10470;BME280;5282;47.052;15.458;2023-03-12T12:18:39;97335.31;;;10.91;37.19
10470;BME280;5282;47.052;15.458;2023-03-12T12:21:23;97338.88;;;11.47;36.32
10470;BME280;5282;47.052;15.458;2023-03-12T12:23:57;97328.00;;;11.00;35.89
10470;BME280;5282;47.052;15.458;2023-03-12T12:26:32;97323.13;;;11.82;35.33
10470;BME280;5282;47.052;15.458;2023-03-12T12:29:14;97331.06;;;11.60;36.32
10470;BME280;5282;47.052;15.458;2023-03-12T12:31:47;97326.00;;;11.57;36.46
10470;BME280;5282;47.052;15.458;2023-03-12T12:34:44;97333.63;;;11.53;35.55
10470;BME280;5282;47.052;15.458;2023-03-12T12:37:22;97342.59;;;11.46;35.82
10470;BME280;5282;47.052;15.458;2023-03-12T12:39:55;97335.44;;;12.08;34.25
10470;BME280;5282;47.052;15.458;2023-03-12T12:42:31;97336.31;;;11.53;35.22
10470;BME280;5282;47.052;15.458;2023-03-12T12:45:03;97343.97;;;10.70;35.66
10470;BME280;5282;47.052;15.458;2023-03-12T12:47:37;97360.91;;;9.22;37.92
10470;BME280;5282;47.052;15.458;2023-03-12T12:50:14;97343.34;;;9.61;38.71
10470;BME280;5282;47.052;15.458;2023-03-12T12:52:44;97342.00;;;10.23;37.97
10470;BME280;5282;47.052;15.458;2023-03-12T12:55:18;97343.69;;;10.48;36.53
10470;BME280;5282;47.052;15.458;2023-03-12T12:57:51;97336.59;;;10.56;36.50
10470;BME280;5282;47.052;15.458;2023-03-12T13:00:35;97338.19;;;10.82;37.06
10470;BME280;5282;47.052;15.458;2023-03-12T13:03:03;97338.59;;;10.54;36.04
10470;BME280;5282;47.052;15.458;2023-03-12T13:05:43;97339.84;;;10.18;37.01
10470;BME280;5282;47.052;15.458;2023-03-12T13:11:24;97337.81;;;10.03;38.52
10470;BME280;5282;47.052;15.458;2023-03-12T13:14:17;97339.81;;;10.51;37.62
10470;BME280;5282;47.052;15.458;2023-03-12T13:16:47;97340.50;;;10.28;39.80
10470;BME280;5282;47.052;15.458;2023-03-12T13:19:24;97349.06;;;10.07;42.52
10470;BME280;5282;47.052;15.458;2023-03-12T13:22:05;97347.91;;;10.18;38.04
10470;BME280;5282;47.052;15.458;2023-03-12T13:24:43;97353.78;;;10.13;37.81